sensor_id;sensor_type;location;lat;lon;timestamp;temperature;humidity
40249;DHT22;25969;49.970;11.062;2022-12-07T05:10:28;1.60;99.90
40249;DHT22;25969;49.970;11.062;2022-12-07T05:20:29;1.50;99.90
40249;DHT22;25969;49.970;11.062;2022-12-07T05:30:30;1.50;99.90
40249;DHT22;25969;49.970;11.062;2022-12-07T05:40:31;1.50;99.90
40249;DHT22;25969;49.970;11.062;2022-12-07T05:50:32;1.40;99.90
40249;DHT22;25969;49.970;11.062;2022-12-07T06:00:36;1.50;99.90
40249;DHT22;25969;49.970;11.062;2022-12-07T06:10:37;1.50;99.90
40249;DHT22;25969;49.970;11.062;2022-12-07T06:20:38;1.50;99.90
40249;DHT22;25969;49.970;11.062;2022-12-07T06:30:39;1.60;99.90
40249;DHT22;25969;49.970;11.062;2022-12-07T06:40:40;1.70;99.90
40249;DHT22;25969;49.970;11.062;2022-12-07T06:50:41;1.70;99.90
40249;DHT22;25969;49.970;11.062;2022-12-07T07:00:44;1.70;99.90
40249;DHT22;25969;49.970;11.062;2022-12-07T07:10:45;1.80;99.90
40249;DHT22;25969;49.970;11.062;2022-12-07T07:20:46;1.90;99.90
40249;DHT22;25969;49.970;11.062;2022-12-07T07:30:47;1.90;99.90
40249;DHT22;25969;49.970;11.062;2022-12-07T07:40:47;1.90;99.90
40249;DHT22;25969;49.970;11.062;2022-12-07T07:50:48;2.00;99.90
40249;DHT22;25969;49.970;11.062;2022-12-07T08:00:49;2.00;99.90
40249;DHT22;25969;49.970;11.062;2022-12-07T08:10:50;2.00;99.90
40249;DHT22;25969;49.970;11.062;2022-12-07T08:20:50;2.10;99.90
40249;DHT22;25969;49.970;11.062;2022-12-07T08:30:51;2.10;99.90
40249;DHT22;25969;49.970;11.062;2022-12-07T08:40:59;2.20;99.90
40249;DHT22;25969;49.970;11.062;2022-12-07T08:51:01;2.30;99.90
40249;DHT22;25969;49.970;11.062;2022-12-07T09:01:02;2.20;99.90
40249;DHT22;25969;49.970;11.062;2022-12-07T09:11:03;2.20;99.90
40249;DHT22;25969;49.970;11.062;2022-12-07T09:21:04;2.20;99.90
40249;DHT22;25969;49.970;11.062;2022-12-07T09:31:05;2.30;99.90
40249;DHT22;25969;49.970;11.062;2022-12-07T09:41:07;2.40;99.90
40249;DHT22;25969;49.970;11.062;2022-12-07T09:51:20;2.50;99.90
40249;DHT22;25969;49.970;11.062;2022-12-07T10:01:21;2.60;99.90
40249;DHT22;25969;49.970;11.062;2022-12-07T10:11:22;2.60;99.90
40249;DHT22;25969;49.970;11.062;2022-12-07T10:21:25;3.00;99.90
40249;DHT22;25969;49.970;11.062;2022-12-07T10:31:25;3.20;99.90
40249;DHT22;25969;49.970;11.062;2022-12-07T10:41:26;3.30;99.90
40249;DHT22;25969;49.970;11.062;2022-12-07T11:02:06;3.30;99.90
40249;DHT22;25969;49.970;11.062;2022-12-07T11:33:15;3.60;99.90
40249;DHT22;25969;49.970;11.062;2022-12-07T11:43:24;4.00;99.90
40249;DHT22;25969;49.970;11.062;2022-12-07T12:03:50;3.60;99.90
40249;DHT22;25969;49.970;11.062;2022-12-07T12:24:21;4.00;99.90
40249;DHT22;25969;49.970;11.062;2022-12-07T12:34:33;4.70;99.90
40249;DHT22;25969;49.970;11.062;2022-12-07T12:54:37;3.90;99.90
40249;DHT22;25969;49.970;11.062;2022-12-07T13:04:48;3.70;99.90
40249;DHT22;25969;49.970;11.062;2022-12-07T13:14:55;3.60;99.90
40249;DHT22;25969;49.970;11.062;2022-12-07T13:35:27;3.60;99.90
40249;DHT22;25969;49.970;11.062;2022-12-07T13:45:29;3.90;99.90
40249;DHT22;25969;49.970;11.062;2022-12-07T13:55:48;3.70;99.90
40249;DHT22;25969;49.970;11.062;2022-12-07T14:06:25;3.70;99.90
40249;DHT22;25969;49.970;11.062;2022-12-07T14:26:31;3.00;99.90
40249;DHT22;25969;49.970;11.062;2022-12-07T14:36:33;3.40;99.90
40249;DHT22;25969;49.970;11.062;2022-12-07T14:46:33;3.40;99.90
40249;DHT22;25969;49.970;11.062;2022-12-07T14:56:34;3.40;99.90
40249;DHT22;25969;49.970;11.062;2022-12-07T15:06:35;3.30;99.90
40249;DHT22;25969;49.970;11.062;2022-12-07T15:16:36;3.10;99.90
40249;DHT22;25969;49.970;11.062;2022-12-07T15:26:39;2.70;99.90
40249;DHT22;25969;49.970;11.062;2022-12-07T15:36:40;2.50;99.90
40249;DHT22;25969;49.970;11.062;2022-12-07T15:46:41;2.30;99.90
40249;DHT22;25969;49.970;11.062;2022-12-07T15:56:42;2.30;99.90
40249;DHT22;25969;49.970;11.062;2022-12-07T16:06:43;2.30;99.90
40249;DHT22;25969;49.970;11.062;2022-12-07T16:16:44;2.60;99.90
40249;DHT22;25969;49.970;11.062;2022-12-07T16:26:45;2.80;99.90
40249;DHT22;25969;49.970;11.062;2022-12-07T16:36:46;2.70;99.90
40249;DHT22;25969;49.970;11.062;2022-12-07T16:46:47;2.60;99.90
40249;DHT22;25969;49.970;11.062;2022-12-07T16:56:47;2.50;99.90
40249;DHT22;25969;49.970;11.062;2022-12-07T17:06:48;2.70;99.90
40249;DHT22;25969;49.970;11.062;2022-12-07T17:16:49;2.70;99.90
40249;DHT22;25969;49.970;11.062;2022-12-07T17:26:50;2.70;99.90
40249;DHT22;25969;49.970;11.062;2022-12-07T17:36:50;2.70;99.90
40249;DHT22;25969;49.970;11.062;2022-12-07T17:46:52;2.70;99.90
40249;DHT22;25969;49.970;11.062;2022-12-07T17:56:54;2.70;99.90
40249;DHT22;25969;49.970;11.062;2022-12-07T18:06:55;2.70;99.90
40249;DHT22;25969;49.970;11.062;2022-12-07T18:16:56;2.60;99.90
40249;DHT22;25969;49.970;11.062;2022-12-07T18:26:57;2.60;99.90
40249;DHT22;25969;49.970;11.062;2022-12-07T18:36:58;2.60;99.90
40249;DHT22;25969;49.970;11.062;2022-12-07T18:46:58;2.50;99.90
40249;DHT22;25969;49.970;11.062;2022-12-07T18:56:59;2.50;99.90
40249;DHT22;25969;49.970;11.062;2022-12-07T19:07:00;2.30;99.90
40249;DHT22;25969;49.970;11.062;2022-12-07T19:17:07;2.20;99.90
40249;DHT22;25969;49.970;11.062;2022-12-07T19:27:09;2.20;99.90
40249;DHT22;25969;49.970;11.062;2022-12-07T19:37:12;2.20;99.90
40249;DHT22;25969;49.970;11.062;2022-12-07T19:47:13;2.20;99.90
40249;DHT22;25969;49.970;11.062;2022-12-07T19:57:16;2.30;99.90
40249;DHT22;25969;49.970;11.062;2022-12-07T20:07:17;2.40;99.90
40249;DHT22;25969;49.970;11.062;2022-12-07T20:17:18;2.50;99.90
40249;DHT22;25969;49.970;11.062;2022-12-07T20:27:19;2.40;99.90
40249;DHT22;25969;49.970;11.062;2022-12-07T20:37:19;2.40;99.90
40249;DHT22;25969;49.970;11.062;2022-12-07T20:47:20;2.40;99.90
40249;DHT22;25969;49.970;11.062;2022-12-07T20:57:21;2.40;99.90
40249;DHT22;25969;49.970;11.062;2022-12-07T21:07:22;2.50;99.90
40249;DHT22;25969;49.970;11.062;2022-12-07T21:17:22;2.50;99.90
40249;DHT22;25969;49.970;11.062;2022-12-07T21:27:23;2.50;99.90
40249;DHT22;25969;49.970;11.062;2022-12-07T21:37:24;2.40;99.90
40249;DHT22;25969;49.970;11.062;2022-12-07T21:47:25;2.40;99.90
40249;DHT22;25969;49.970;11.062;2022-12-07T21:57:26;2.40;99.90
40249;DHT22;25969;49.970;11.062;2022-12-07T22:07:26;2.40;99.90
40249;DHT22;25969;49.970;11.062;2022-12-07T22:17:28;2.40;99.90
40249;DHT22;25969;49.970;11.062;2022-12-07T22:27:29;2.40;99.90
40249;DHT22;25969;49.970;11.062;2022-12-07T22:37:30;2.40;99.90
40249;DHT22;25969;49.970;11.062;2022-12-07T22:47:31;2.50;99.90
40249;DHT22;25969;49.970;11.062;2022-12-07T22:57:32;2.40;99.90
